createdAt,value
2018-12-23T08:28:23.278Z,29.40
2018-12-23T08:30:51.219Z,43.80
2018-12-23T08:33:19.305Z,36.23
2018-12-23T08:35:47.354Z,44.63
2018-12-23T08:38:15.277Z,40.13
2018-12-23T08:43:36.853Z,35.03
2018-12-23T08:46:04.753Z,46.10
2018-12-23T08:48:32.743Z,41.23
2018-12-23T08:51:00.789Z,44.77
2018-12-23T08:54:04.398Z,42.20
2018-12-23T08:56:32.803Z,27.93
2018-12-23T08:59:27.423Z,40.30
2018-12-23T09:02:13.417Z,34.03
2018-12-23T09:05:24.992Z,33.73
2018-12-23T09:07:53.367Z,36.63
2018-12-23T09:10:21.299Z,38.83
2018-12-23T09:12:53.558Z,34.47
2018-12-23T09:15:19.858Z,39.77
2018-12-23T09:17:51.028Z,38.37
2018-12-23T09:20:27.363Z,31.97
2018-12-23T09:23:32.097Z,38.30
2018-12-23T09:29:23.981Z,39.97
2018-12-23T09:31:54.423Z,39.60
2018-12-23T09:34:28.081Z,42.03
2018-12-23T09:36:58.347Z,40.03
2018-12-23T09:39:29.464Z,36.83
2018-12-23T09:42:10.918Z,41.20
2018-12-23T09:45:03.792Z,37.23
2018-12-23T09:47:31.878Z,38.60
2018-12-23T09:50:02.449Z,38.23
2018-12-23T09:52:30.486Z,35.93
2018-12-23T09:54:59.732Z,38.70
2018-12-23T10:01:31.183Z,38.87
2018-12-23T10:08:25.394Z,40.07
2018-12-23T10:11:23.512Z,41.43
2018-12-23T10:13:51.880Z,36.17
2018-12-23T10:16:24.532Z,41.20
2018-12-23T10:19:00.553Z,37.20
2018-12-23T10:21:51.362Z,37.83
2018-12-23T10:27:56.560Z,43.87
2018-12-23T10:30:33.682Z,32.10
2018-12-23T10:33:07.630Z,38.47
2018-12-23T10:35:45.637Z,27.50
2018-12-23T10:53:30.608Z,43.33
2018-12-23T10:57:04.614Z,35.83
2018-12-23T11:03:45.079Z,35.70
2018-12-23T11:06:46.578Z,36.57
2018-12-23T11:09:46.383Z,33.23
2018-12-23T11:12:52.609Z,37.20
2018-12-23T11:15:24.312Z,29.83
2018-12-23T11:18:03.515Z,41.87
2018-12-23T11:21:17.098Z,36.43
2018-12-23T11:27:44.549Z,39.33
2018-12-23T11:31:26.982Z,32.07
2018-12-23T11:34:16.937Z,36.77
2018-12-23T11:37:03.714Z,32.50
2018-12-23T11:40:14.098Z,29.90
2018-12-23T11:43:55.222Z,37.80
2018-12-23T11:53:26.165Z,32.50
2018-12-23T12:07:13.163Z,32.13
2018-12-23T12:45:29.369Z,42.13
2018-12-23T12:52:16.161Z,36.20
2018-12-23T12:54:47.134Z,44.47
2018-12-23T12:57:32.913Z,38.50
2018-12-23T13:00:11.403Z,31.73
2018-12-23T13:11:11.394Z,40.47
2018-12-23T13:14:07.895Z,34.03
2018-12-23T13:23:13.909Z,32.50
2018-12-23T13:26:28.150Z,33.27
2018-12-23T13:29:55.859Z,37.13
2018-12-23T13:32:35.969Z,33.07
2018-12-23T13:35:55.863Z,34.00
2018-12-23T13:42:42.109Z,34.87
2018-12-23T14:01:10.822Z,26.87
2018-12-23T14:08:04.837Z,19.20
2018-12-23T14:11:13.948Z,17.53
2018-12-23T14:23:48.632Z,14.83
2018-12-23T14:30:03.034Z,16.10
2018-12-23T14:33:47.038Z,15.13
2018-12-23T14:40:16.207Z,11.70
2018-12-23T14:45:49.467Z,13.40
2018-12-23T14:48:25.323Z,19.20
2018-12-23T14:51:02.239Z,18.60
2018-12-23T14:53:42.700Z,13.37
2018-12-23T15:10:21.604Z,21.63
2018-12-23T15:16:18.393Z,17.63
2018-12-23T15:26:36.499Z,22.00
2018-12-23T15:29:56.670Z,17.67
2018-12-23T15:32:24.984Z,18.83
2018-12-23T15:39:30.023Z,19.90
2018-12-23T15:41:58.988Z,18.80
2018-12-23T15:47:59.908Z,20.17
2018-12-23T15:51:16.510Z,17.43
2018-12-23T15:53:59.762Z,20.07
2018-12-23T15:56:28.469Z,17.77
2018-12-23T15:59:23.385Z,19.10
2018-12-23T16:02:23.411Z,23.67
2018-12-23T16:05:14.048Z,21.57
2018-12-23T16:07:42.849Z,25.90
2018-12-23T16:10:23.673Z,23.20
2018-12-23T16:12:57.097Z,19.87
2018-12-23T16:15:25.217Z,25.13
2018-12-23T16:22:51.666Z,29.87
2018-12-23T16:25:20.069Z,23.50
2018-12-23T16:27:48.689Z,25.60
2018-12-23T16:30:17.249Z,25.00
2018-12-23T16:32:45.944Z,35.27
2018-12-23T16:35:17.663Z,27.80
2018-12-23T16:38:56.599Z,29.37
2018-12-23T16:41:25.298Z,26.03
2018-12-23T16:44:19.896Z,27.87
2018-12-23T16:46:58.149Z,30.50
2018-12-23T16:49:26.763Z,34.00
2018-12-23T16:51:54.944Z,33.93
2018-12-23T16:57:47.214Z,33.33
2018-12-23T17:01:11.192Z,29.43
2018-12-23T17:04:26.739Z,28.73
2018-12-23T17:18:07.058Z,26.97
2018-12-23T17:20:58.228Z,30.63
2018-12-23T17:23:43.950Z,29.37
2018-12-23T17:26:12.204Z,29.13
2018-12-23T17:28:40.514Z,29.43
2018-12-23T17:31:37.058Z,28.10
2018-12-23T17:37:44.434Z,31.77
2018-12-23T17:40:16.587Z,32.30
2018-12-23T17:43:22.706Z,23.37
2018-12-23T17:53:32.760Z,25.27
2018-12-23T17:59:36.889Z,31.53
2018-12-23T18:02:05.617Z,28.27
2018-12-23T18:08:09.938Z,27.43
2018-12-23T18:10:38.823Z,32.90
2018-12-23T18:13:07.745Z,30.00
2018-12-23T18:15:36.768Z,34.50
2018-12-23T18:18:09.470Z,37.93
2018-12-23T18:20:37.830Z,42.90
2018-12-23T18:23:06.256Z,42.30
2018-12-23T18:25:34.597Z,37.57
2018-12-23T18:28:02.855Z,37.07
2018-12-23T18:30:31.289Z,49.00
2018-12-23T18:32:59.664Z,33.47
2018-12-23T18:35:29.671Z,34.63
2018-12-23T18:37:57.939Z,30.73
2018-12-23T18:40:33.165Z,32.47
2018-12-23T18:42:56.472Z,29.23
2018-12-23T18:45:24.795Z,37.83
2018-12-23T18:47:53.211Z,34.43
2018-12-23T18:50:21.500Z,35.50
2018-12-23T18:52:51.061Z,28.60
2018-12-23T18:55:19.425Z,30.93
2018-12-23T18:57:48.875Z,30.87
2018-12-23T19:00:17.070Z,30.73
2018-12-23T19:02:54.676Z,28.23
2018-12-23T19:05:22.980Z,27.20
2018-12-23T19:07:57.470Z,27.87
2018-12-23T19:10:55.702Z,34.73
2018-12-23T19:14:11.555Z,30.77
2018-12-23T19:17:09.091Z,34.87
2018-12-23T19:20:18.752Z,31.67
2018-12-23T19:23:32.130Z,26.43
2018-12-23T19:26:57.040Z,27.20
2018-12-23T19:30:02.033Z,27.67
2018-12-23T19:33:07.290Z,25.97
2018-12-23T19:36:15.209Z,27.03
2018-12-23T19:39:20.735Z,28.30
2018-12-23T19:42:35.650Z,32.37
2018-12-23T19:45:51.070Z,30.17
2018-12-23T19:48:49.455Z,30.93
2018-12-23T19:51:53.715Z,30.73
2018-12-23T19:54:43.991Z,29.67
2018-12-23T19:57:50.040Z,28.27
2018-12-23T20:01:08.064Z,27.80
2018-12-23T20:03:55.589Z,29.97
2018-12-23T20:07:29.655Z,28.57
2018-12-23T20:10:40.680Z,25.93
2018-12-23T20:14:08.419Z,23.60
2018-12-23T20:17:24.403Z,26.43
2018-12-23T20:20:49.735Z,20.30
2018-12-23T20:23:54.940Z,13.23
2018-12-23T20:27:02.785Z,17.00
2018-12-23T20:30:01.263Z,12.93
2018-12-23T20:33:07.815Z,10.57
2018-12-23T20:36:02.214Z,10.80
2018-12-23T20:39:11.424Z,8.20
2018-12-23T20:42:18.369Z,6.80
2018-12-23T20:45:08.258Z,3.17
2018-12-23T20:47:59.640Z,3.87
2018-12-23T20:51:14.255Z,4.37
2018-12-23T20:54:22.335Z,3.33
2018-12-23T20:57:31.970Z,2.87
2018-12-23T21:00:50.579Z,3.33
2018-12-23T21:03:40.229Z,6.47
2018-12-23T21:06:48.229Z,3.13
2018-12-23T21:09:41.814Z,4.33
2018-12-23T21:13:01.625Z,4.53
2018-12-23T21:16:18.834Z,4.37
2018-12-23T21:19:18.031Z,4.87
2018-12-23T21:22:08.894Z,4.30
2018-12-23T21:25:13.389Z,3.30
2018-12-23T21:28:47.117Z,5.13
2018-12-23T21:31:58.987Z,6.40
2018-12-23T21:35:13.758Z,6.57
2018-12-23T21:38:22.746Z,6.40
2018-12-23T21:41:30.819Z,6.53
2018-12-23T21:44:37.999Z,4.97
2018-12-23T21:47:34.364Z,5.07
2018-12-23T21:51:05.305Z,4.20
2018-12-23T21:54:11.572Z,4.20
2018-12-23T21:57:29.578Z,4.93
2018-12-23T22:00:32.014Z,4.13
2018-12-23T22:03:36.229Z,5.63
2018-12-23T22:06:20.255Z,3.63
2018-12-23T22:09:17.293Z,4.07
2018-12-23T22:12:22.515Z,3.33
2018-12-23T22:14:50.554Z,3.40
2018-12-23T22:17:18.532Z,3.57
2018-12-23T22:19:46.575Z,3.67
2018-12-23T22:22:15.019Z,3.73
2018-12-23T22:24:43.139Z,3.90
2018-12-23T22:27:11.051Z,3.90
2018-12-23T22:29:39.179Z,3.00
2018-12-23T22:32:08.616Z,3.37
2018-12-23T22:34:37.724Z,3.60
2018-12-23T22:37:06.025Z,3.33
2018-12-23T22:39:36.954Z,5.37
2018-12-23T22:42:05.045Z,5.03
2018-12-23T22:44:33.091Z,2.90
2018-12-23T22:47:01.142Z,3.63
2018-12-23T22:49:29.038Z,4.53
2018-12-23T22:51:57.009Z,3.13
2018-12-23T22:54:25.033Z,4.93
2018-12-23T22:58:16.752Z,4.80
2018-12-23T23:01:40.186Z,6.70
2018-12-23T23:05:01.078Z,3.10
2018-12-23T23:08:05.134Z,2.67
2018-12-23T23:10:52.864Z,3.30
2018-12-23T23:13:50.363Z,4.73
2018-12-23T23:23:54.484Z,2.40
2018-12-23T23:27:04.668Z,3.80
2018-12-23T23:30:35.150Z,2.97
2018-12-23T23:36:47.817Z,6.67
2018-12-23T23:39:15.973Z,3.90
